Time;durP1;ratioP1;P1;durP2;ratioP2;P2;SDS_P1;SDS_P2;PMS_P1;PMS_P2;Temp;Humidity;BMP_temperature;BMP_pressure;BME280_temperature;BME280_humidity;BME280_pressure;Samples;Min_cycle;Max_cycle;Signal;HPM_P1;HPM_P2
2021/05/19 10:45:55;;;;;;;15.68;7.53;;;;;;;24.90;33.74;98022.69;4941609;27;104546;-52
2021/05/19 10:50:37;;;;;;;21.23;9.90;;;;;;;26.73;32.70;98014.88;5068389;27;20733;-70
2021/05/19 11:01:09;;;;;;;10.75;4.20;;;;;;;26.03;31.83;98000.59;5072130;28;20055;-68
2021/05/19 11:03:37;;;;;;;9.57;5.03;;;;;;;25.60;33.64;98001.81;5069751;28;20032;-65
2021/05/19 11:06:04;;;;;;;7.20;4.05;;;;;;;25.46;33.74;97995.00;5069279;28;20270;-68
2021/05/19 11:08:31;;;;;;;9.40;3.38;;;;;;;25.30;32.55;97990.25;5072712;28;20028;-67
2021/05/19 11:11:17;;;;;;;8.85;3.45;;;;;;;25.20;32.74;97980.91;5069532;28;20029;-64
2021/05/19 11:19:32;;;;;;;8.32;4.68;;;;;;;25.06;35.79;97992.78;5056085;28;20120;-66
2021/05/19 11:22:00;;;;;;;7.07;4.32;;;;;;;24.96;36.70;97987.16;5054442;28;20032;-67
2021/05/19 11:24:27;;;;;;;8.80;4.95;;;;;;;25.04;37.03;97981.53;5068710;28;20029;-67
2021/05/19 11:26:57;;;;;;;11.15;4.82;;;;;;;25.05;37.16;97990.34;5069475;28;20024;-67
2021/05/19 11:29:25;;;;;;;10.18;4.82;;;;;;;25.02;37.41;97988.94;5069495;28;20028;-67
2021/05/19 11:31:55;;;;;;;6.80;4.63;;;;;;;25.02;37.54;97977.47;5068682;28;20040;-66
2021/05/19 11:34:22;;;;;;;12.65;4.85;;;;;;;25.05;37.86;97977.00;5068858;28;20028;-67
2021/05/19 11:36:56;;;;;;;9.85;5.10;;;;;;;25.08;37.92;97979.22;5069562;28;20028;-67
2021/05/19 11:39:39;;;;;;;11.07;4.93;;;;;;;25.08;38.04;97980.06;5065963;28;20016;-67
2021/05/19 11:42:23;;;;;;;12.27;5.93;;;;;;;25.08;38.15;97976.56;5069393;28;20025;-67
2021/05/19 11:44:55;;;;;;;13.60;5.78;;;;;;;25.10;38.26;97977.16;5069337;28;20024;-68
2021/05/19 11:47:30;;;;;;;14.52;7.32;;;;;;;25.10;38.47;97988.63;5069190;28;20021;-67
2021/05/19 11:50:08;;;;;;;16.50;6.97;;;;;;;25.11;38.42;97984.94;5068739;28;20033;-68
2021/05/19 11:52:47;;;;;;;13.18;7.18;;;;;;;25.12;38.51;97980.44;5059333;28;20462;-67
2021/05/19 11:55:26;;;;;;;18.92;8.73;;;;;;;25.17;38.68;97985.88;5065896;28;20078;-67
2021/05/19 11:57:51;;;;;;;21.40;9.48;;;;;;;25.19;38.70;97973.13;5064883;28;20465;-67
2021/05/19 12:00:30;;;;;;;26.85;11.52;;;;;;;25.20;38.62;97972.13;5062661;28;20036;-67
2021/05/19 12:03:01;;;;;;;28.35;12.00;;;;;;;25.23;38.82;97975.16;5048599;28;20176;-69
2021/05/19 12:05:28;;;;;;;22.52;11.90;;;;;;;25.25;38.73;97982.94;5036737;28;20438;-67
2021/05/19 12:07:54;;;;;;;27.08;12.43;;;;;;;25.24;38.94;97978.63;5054665;28;20041;-67
2021/05/19 12:10:21;;;;;;;31.83;13.50;;;;;;;25.24;38.88;97987.44;5028721;28;20037;-67
2021/05/19 12:12:53;;;;;;;30.42;13.30;;;;;;;25.33;38.70;98017.31;5050426;28;20033;-73
2021/05/19 12:15:19;;;;;;;30.13;13.32;;;;;;;25.27;38.52;98020.84;5046039;28;20449;-66
2021/05/19 12:17:45;;;;;;;29.35;12.35;;;;;;;25.23;38.63;98041.03;5054551;28;20025;-64
2021/05/19 12:20:25;;;;;;;32.90;13.32;;;;;;;25.27;38.62;98056.34;5056596;28;20021;-64
2021/05/19 12:22:51;;;;;;;35.22;13.82;;;;;;;25.28;38.55;98049.19;5052016;28;20120;-64
2021/05/19 12:25:16;;;;;;;28.58;13.02;;;;;;;25.32;38.42;98066.34;5054192;28;20051;-64
2021/05/19 12:27:42;;;;;;;26.73;12.82;;;;;;;25.33;38.40;98070.66;5054785;28;20028;-64
2021/05/19 12:30:08;;;;;;;30.33;12.82;;;;;;;25.33;38.25;98067.19;5054555;28;20028;-64
2021/05/19 12:32:34;;;;;;;27.73;12.40;;;;;;;25.36;38.19;98074.78;5055047;28;20346;-66
2021/05/19 12:35:15;;;;;;;28.58;12.48;;;;;;;25.33;38.19;98070.66;5054779;28;20033;-66
2021/05/19 12:37:43;;;;;;;20.02;11.68;;;;;;;25.36;38.11;98069.44;5055160;28;20051;-64
2021/05/19 12:40:15;;;;;;;24.13;11.10;;;;;;;25.36;38.23;98077.44;5041346;28;20029;-64
2021/05/19 12:42:59;;;;;;;19.42;11.40;;;;;;;25.35;38.30;98070.44;5053487;28;20028;-65
2021/05/19 12:45:31;;;;;;;23.98;11.45;;;;;;;25.34;38.51;98072.28;5055683;28;20025;-69
2021/05/19 12:48:09;;;;;;;26.42;12.00;;;;;;;25.45;38.42;98079.59;5040924;28;20031;-68
2021/05/19 12:50:37;;;;;;;17.48;10.82;;;;;;;25.45;38.40;98084.94;5054497;28;20486;-67
2021/05/19 12:53:05;;;;;;;18.35;11.68;;;;;;;25.40;38.83;98082.13;5051879;28;20044;-63
2021/05/19 12:55:30;;;;;;;20.90;11.48;;;;;;;25.39;38.81;98085.03;5055038;28;20043;-65
2021/05/19 12:58:24;;;;;;;24.17;11.85;;;;;;;25.40;39.63;98086.63;5041104;28;20040;-63
2021/05/19 13:01:00;;;;;;;18.70;10.68;;;;;;;25.39;39.22;98085.03;5038486;28;20486;-61
2021/05/19 13:03:31;;;;;;;17.35;10.38;;;;;;;25.43;39.46;98089.69;5030024;28;20036;-61
2021/05/19 13:06:00;;;;;;;18.77;11.13;;;;;;;25.45;39.38;98098.28;5053524;28;20021;-61
2021/05/19 13:08:26;;;;;;;20.27;10.73;;;;;;;25.46;39.56;98102.56;5054273;28;20507;-60
2021/05/19 13:10:52;;;;;;;17.38;10.02;;;;;;;25.47;39.23;98106.06;5054115;28;20037;-64
2021/05/19 13:13:27;;;;;;;16.63;10.25;;;;;;;25.49;39.28;98109.31;5052980;28;20024;-63
2021/05/19 13:15:57;;;;;;;15.00;10.30;;;;;;;25.53;39.10;98114.00;5054479;28;20031;-63
2021/05/19 13:21:19;;;;;;;;;;;;;;;25.58;39.36;98116.81;5054034;28;20531;-59
2021/05/19 13:23:45;;;;;;;;;;;;;;;25.66;39.32;98124.53;5040475;28;19913;-63
2021/05/19 13:26:13;;;;;;;13.60;9.40;;;;;;;25.71;38.95;98124.66;5017193;28;19920;-62
2021/05/19 13:28:39;;;;;;;13.05;9.60;;;;;;;25.72;38.92;98126.28;5064536;28;20273;-60
2021/05/19 13:31:05;;;;;;;13.52;9.35;;;;;;;25.74;38.93;98129.56;5072281;28;20073;-63
2021/05/19 13:39:13;;;;;;;12.73;8.82;;;;;;;25.84;38.91;98134.38;5075801;28;20100;-60
2021/05/19 13:41:42;;;;;;;12.50;9.13;;;;;;;25.82;38.59;98128.47;5074771;28;20021;-62
2021/05/19 13:44:12;;;;;;;11.82;8.77;;;;;;;25.78;38.68;98125.41;5074098;28;20020;-61
2021/05/19 13:46:48;;;;;;;12.25;8.88;;;;;;;25.83;38.50;98135.41;5048067;28;20047;-60
2021/05/19 13:49:22;;;;;;;13.60;9.27;;;;;;;25.85;38.59;98131.47;5076477;28;20041;-62
2021/05/19 13:52:03;;;;;;;11.45;8.40;;;;;;;25.87;38.53;98131.28;5064479;28;20378;-62
2021/05/19 13:54:33;;;;;;;13.50;8.45;;;;;;;25.91;38.50;98122.56;5067414;28;20055;-62
2021/05/19 13:56:58;;;;;;;19.85;8.35;;;;;;;25.99;38.57;98127.59;5057391;28;20020;-59
2021/05/19 13:59:23;;;;;;;11.38;8.02;;;;;;;25.97;38.42;98115.53;5059466;28;20020;-63
2021/05/19 14:01:49;;;;;;;12.73;8.25;;;;;;;25.97;38.54;98104.84;5054892;28;20032;-62
2021/05/19 14:04:15;;;;;;;14.50;7.88;;;;;;;26.00;38.00;98109.72;5057987;28;20400;-61
2021/05/19 14:06:46;;;;;;;7.40;4.57;;;;;;;25.90;35.11;98090.75;5071878;28;20028;-60
2021/05/19 14:09:12;;;;;;;5.88;3.33;;;;;;;25.61;34.52;98099.53;5066104;28;20024;-60
2021/05/19 14:11:49;;;;;;;4.25;2.83;;;;;;;25.71;33.76;98100.63;5056147;28;20473;-61
2021/05/19 14:27:40;;;;;;;3.55;1.85;;;;;;;25.57;32.83;98090.34;5020974;28;20176;-62
2021/05/19 14:30:11;;;;;;;3.75;2.13;;;;;;;25.50;33.36;98092.28;5028780;28;20024;-59
2021/05/19 14:32:39;;;;;;;3.03;1.80;;;;;;;25.49;31.46;98088.78;5046977;28;20025;-59
2021/05/19 14:35:17;;;;;;;2.75;1.38;;;;;;;25.52;31.47;98091.00;5039226;28;20028;-65
2021/05/19 16:44:54;;;;;;;16.35;6.13;;;;;;;24.14;37.87;98183.75;5011352;28;20391;-68
2021/05/19 16:47:20;;;;;;;13.10;5.22;;;;;;;24.21;37.90;98179.22;5033112;28;20049;-67
